createdAt,value
2022-12-20T00:00:15.891Z,23.4
2022-12-20T00:01:32.171Z,26.2
2022-12-20T00:02:48.475Z,23.8
2022-12-20T00:04:04.769Z,22.3
2022-12-20T00:05:21.064Z,22
2022-12-20T00:06:37.364Z,21.1
2022-12-20T00:07:53.660Z,23.4
2022-12-20T00:09:09.937Z,20.8
2022-12-20T00:10:26.238Z,19.6
2022-12-20T00:11:42.534Z,21
2022-12-20T00:14:15.134Z,20.9
2022-12-20T00:15:30.436Z,21.2
2022-12-20T00:16:46.725Z,20.5
2022-12-20T00:18:03.015Z,20
2022-12-20T00:19:19.308Z,20.6
2022-12-20T00:20:35.611Z,19.6
2022-12-20T00:21:51.916Z,20.7
2022-12-20T00:23:08.198Z,19.8
2022-12-20T00:24:24.488Z,21.2
2022-12-20T00:25:40.798Z,20.4
2022-12-20T00:26:57.087Z,20.2
2022-12-20T00:28:13.373Z,20.8
2022-12-20T00:30:45.979Z,19.6
2022-12-20T00:32:01.273Z,19.8
2022-12-20T00:33:17.576Z,21.2
2022-12-20T00:34:33.860Z,19.4
2022-12-20T00:35:50.172Z,21.3
2022-12-20T00:37:06.470Z,21.3
2022-12-20T00:38:22.761Z,20.7
2022-12-20T00:39:39.050Z,21.4
2022-12-20T00:40:55.337Z,21.5
2022-12-20T00:42:11.000Z,19.2
2022-12-20T00:43:27.923Z,20.1
2022-12-20T00:44:44.219Z,19.4
2022-12-20T00:47:16.807Z,19.2
2022-12-20T00:49:48.424Z,19.8
2022-12-20T00:51:03.734Z,19.4
2022-12-20T00:52:19.043Z,21.9
2022-12-20T00:53:35.334Z,20.5
2022-12-20T00:54:51.646Z,20.4
2022-12-20T00:56:07.934Z,20.1
2022-12-20T00:57:24.218Z,19.9
2022-12-20T00:58:40.511Z,20.4
2022-12-20T00:59:56.815Z,20.8
2022-12-20T01:01:13.121Z,21.8
2022-12-20T01:02:29.415Z,20.4
2022-12-20T01:03:45.703Z,20
2022-12-20T01:05:01.026Z,21.2
2022-12-20T01:06:16.321Z,21
2022-12-20T01:07:32.612Z,21.4
2022-12-20T01:08:48.926Z,20
2022-12-20T01:10:05.204Z,20.3
2022-12-20T01:11:21.517Z,19.7
2022-12-20T01:12:37.810Z,22.1
2022-12-20T01:13:54.088Z,19.9
2022-12-20T01:15:10.385Z,19.8
2022-12-20T01:16:26.695Z,21
2022-12-20T01:17:42.981Z,21
2022-12-20T01:20:15.566Z,21.2
2022-12-20T01:21:31.869Z,21.4
2022-12-20T01:22:47.174Z,20.8
2022-12-20T01:24:03.464Z,20.5
2022-12-20T01:25:19.763Z,20.8
2022-12-20T01:26:36.060Z,21.5
2022-12-20T01:27:52.357Z,22.3
2022-12-20T01:29:08.656Z,19.8
2022-12-20T01:30:24.933Z,20.9
2022-12-20T01:31:41.244Z,19.9
2022-12-20T01:32:57.533Z,20.4
2022-12-20T01:34:13.819Z,20.1
2022-12-20T01:35:30.120Z,21.2
2022-12-20T01:36:46.426Z,20.7
2022-12-20T01:38:02.701Z,21.3
2022-12-20T01:39:18.024Z,19.5
2022-12-20T01:40:34.326Z,20.5
2022-12-20T01:41:50.620Z,19.4
2022-12-20T01:43:06.914Z,19.6
2022-12-20T01:44:23.000Z,21.1
2022-12-20T01:45:39.495Z,23.2
2022-12-20T01:46:55.795Z,20.6
2022-12-20T01:48:12.091Z,21.1
2022-12-20T01:49:28.378Z,20.4
2022-12-20T01:50:44.664Z,19.2
2022-12-20T01:52:00.958Z,20.3
2022-12-20T01:53:17.264Z,19.3
2022-12-20T01:54:33.554Z,21.1
2022-12-20T01:55:48.866Z,20.8
2022-12-20T01:57:05.161Z,19.8
2022-12-20T01:58:21.452Z,19.2
2022-12-20T01:59:37.751Z,21.4
2022-12-20T02:00:54.055Z,20.7
2022-12-20T02:02:10.334Z,20.7
2022-12-20T02:03:26.629Z,19.9
2022-12-20T02:04:42.938Z,19.8
2022-12-20T02:05:59.232Z,21.2
2022-12-20T02:07:15.516Z,19.9
2022-12-20T02:08:31.811Z,19.9
2022-12-20T02:09:48.116Z,18.9
2022-12-20T02:11:04.400Z,20.1
2022-12-20T02:12:19.716Z,19.3
2022-12-20T02:13:36.004Z,20.1
2022-12-20T02:14:52.299Z,19
2022-12-20T02:16:08.593Z,20.6
2022-12-20T02:17:24.900Z,19.5
2022-12-20T02:18:40.205Z,20.1
2022-12-20T02:19:56.508Z,20.3
2022-12-20T02:21:12.789Z,21.5
2022-12-20T02:22:29.092Z,19.2
2022-12-20T02:23:45.394Z,19
2022-12-20T02:25:01.683Z,19.7
2022-12-20T02:26:17.975Z,19.8
2022-12-20T02:27:34.270Z,18.6
2022-12-20T02:28:50.566Z,20
2022-12-20T02:30:06.855Z,19.4
2022-12-20T02:31:23.151Z,19.5
2022-12-20T02:32:39.442Z,19.8
2022-12-20T02:33:55.742Z,20.3
2022-12-20T02:35:11.058Z,18.3
2022-12-20T02:36:27.356Z,19.2
2022-12-20T02:37:43.642Z,18.9
2022-12-20T02:38:59.938Z,20.7
2022-12-20T02:40:16.241Z,21.2
2022-12-20T02:41:32.534Z,20.9
2022-12-20T02:42:48.824Z,20.3
2022-12-20T02:44:05.126Z,21.6
2022-12-20T02:45:21.407Z,22
2022-12-20T02:46:37.706Z,19.5
2022-12-20T02:47:54.006Z,22.6
2022-12-20T02:49:10.285Z,20.4
2022-12-20T02:51:42.864Z,21.1
2022-12-20T02:54:14.475Z,20.6
2022-12-20T02:55:30.761Z,20.4
2022-12-20T02:56:47.065Z,21.4
2022-12-20T02:58:03.365Z,23.2
2022-12-20T02:59:19.663Z,20
2022-12-20T03:00:35.956Z,20.6
2022-12-20T03:01:52.245Z,21.1
2022-12-20T03:03:08.536Z,20.1
2022-12-20T03:04:24.829Z,20.2
2022-12-20T03:06:57.412Z,22.5
2022-12-20T03:08:12.733Z,21.6
2022-12-20T03:09:28.046Z,19.9
2022-12-20T03:10:44.348Z,20.5
2022-12-20T03:12:00.630Z,21.6
2022-12-20T03:13:16.938Z,21.4
2022-12-20T03:14:33.218Z,20.9
2022-12-20T03:15:49.528Z,23.2
2022-12-20T03:17:05.817Z,21.7
2022-12-20T03:18:22.100Z,22
2022-12-20T03:19:38.411Z,22.4
2022-12-20T03:20:54.694Z,23
2022-12-20T03:22:10.012Z,23.5
2022-12-20T03:23:25.327Z,21.7
2022-12-20T03:24:41.623Z,21.9
2022-12-20T03:25:57.915Z,24.5
2022-12-20T03:27:14.212Z,22.4
2022-12-20T03:29:46.801Z,22.5
2022-12-20T03:31:03.092Z,23.1
2022-12-20T03:32:19.392Z,23.6
2022-12-20T03:33:35.685Z,23.8
2022-12-20T03:34:51.965Z,24.6
2022-12-20T03:36:08.277Z,25.2
2022-12-20T03:37:24.564Z,24.6
2022-12-20T03:38:40.857Z,24.2
2022-12-20T03:39:56.172Z,25.7
2022-12-20T03:41:12.468Z,24.7
2022-12-20T03:42:28.750Z,24.4
2022-12-20T03:43:45.061Z,25.7
2022-12-20T03:45:01.354Z,25.1
2022-12-20T03:46:17.650Z,26
2022-12-20T03:47:33.940Z,27.1
2022-12-20T03:48:50.223Z,25.4
2022-12-20T03:50:06.524Z,24
2022-12-20T03:51:22.826Z,24
2022-12-20T03:52:39.121Z,25.8
2022-12-20T03:53:55.415Z,24.3
2022-12-20T03:55:11.702Z,26.2
2022-12-20T03:56:28.119Z,25.7
2022-12-20T03:57:44.414Z,26.4
2022-12-20T03:59:00.711Z,25.8
2022-12-20T04:00:17.004Z,25.1
2022-12-20T04:01:33.298Z,25.7
2022-12-20T04:02:49.601Z,24
2022-12-20T04:04:05.887Z,27.2
2022-12-20T04:05:22.181Z,24.7
2022-12-20T04:06:38.470Z,25.2
2022-12-20T04:07:54.766Z,27.7
2022-12-20T04:09:11.070Z,25.8
2022-12-20T04:10:27.371Z,26.1
2022-12-20T04:11:43.655Z,24.6
2022-12-20T04:12:58.957Z,24.6
2022-12-20T04:14:15.259Z,23.9
2022-12-20T04:15:31.561Z,26
2022-12-20T04:16:47.853Z,26.6
2022-12-20T04:18:04.136Z,25
2022-12-20T04:19:20.435Z,25.4
2022-12-20T04:20:36.743Z,25.3
2022-12-20T04:21:53.035Z,26.2
2022-12-20T04:23:09.312Z,23.8
2022-12-20T04:24:25.609Z,23.9
2022-12-20T04:25:41.902Z,25.7
2022-12-20T04:26:58.214Z,24.8
2022-12-20T04:28:14.496Z,25.9
2022-12-20T04:29:29.807Z,24.5
2022-12-20T04:30:46.101Z,26.1
2022-12-20T04:32:02.403Z,22.9
2022-12-20T04:33:18.695Z,24.4
2022-12-20T04:34:34.993Z,25
2022-12-20T04:35:51.288Z,26.9
2022-12-20T04:37:07.570Z,25.5
2022-12-20T04:38:23.865Z,24.3
2022-12-20T04:39:40.169Z,24.6
2022-12-20T04:40:56.451Z,24.7
2022-12-20T04:43:29.055Z,24.2
2022-12-20T04:44:45.346Z,24.4
2022-12-20T04:46:00.649Z,25.4
2022-12-20T04:47:16.942Z,24.6
2022-12-20T04:48:33.254Z,24.9
2022-12-20T04:49:49.546Z,24.1
2022-12-20T04:51:05.833Z,23.1
2022-12-20T04:52:22.122Z,22.8
2022-12-20T04:53:38.423Z,23.4
2022-12-20T04:54:54.722Z,22.8
2022-12-20T04:56:11.011Z,23.6
2022-12-20T04:57:27.319Z,24.6
2022-12-20T04:58:43.608Z,23.1
2022-12-20T04:59:59.896Z,23.3
2022-12-20T05:01:16.201Z,24.1
2022-12-20T05:02:31.501Z,22.6
2022-12-20T05:03:47.789Z,25.2
2022-12-20T05:05:04.089Z,21.8
2022-12-20T05:06:20.397Z,23.3
2022-12-20T05:07:36.684Z,23.1
2022-12-20T05:08:52.970Z,23.7
2022-12-20T05:10:09.270Z,22.1
2022-12-20T05:11:25.562Z,22.5
2022-12-20T05:12:41.857Z,23.6
2022-12-20T05:13:58.152Z,23.7
2022-12-20T05:15:14.445Z,23.5
2022-12-20T05:16:30.740Z,23.7
2022-12-20T05:17:47.046Z,23.6
2022-12-20T05:19:02.352Z,22.9
2022-12-20T05:20:18.646Z,21.9
2022-12-20T05:21:34.948Z,25.2
2022-12-20T05:22:51.239Z,22.7
2022-12-20T05:24:07.524Z,23
2022-12-20T05:25:23.830Z,21.1
2022-12-20T05:26:40.116Z,25.5
2022-12-20T05:27:56.402Z,22.1
2022-12-20T05:29:12.703Z,22.2
2022-12-20T05:30:28.991Z,20.3
2022-12-20T05:31:45.298Z,21.6
2022-12-20T05:33:01.601Z,21.6
2022-12-20T05:34:17.885Z,22.8
2022-12-20T05:35:33.184Z,22.4
2022-12-20T05:36:49.489Z,22.3
2022-12-20T05:38:05.782Z,20.9
2022-12-20T05:39:22.076Z,20.6
2022-12-20T05:40:38.382Z,21.5
2022-12-20T05:41:54.677Z,20.7
2022-12-20T05:43:10.957Z,21.8
2022-12-20T05:44:27.264Z,20.4
2022-12-20T05:45:43.549Z,21.2
2022-12-20T05:46:59.838Z,21.6
2022-12-20T05:48:16.143Z,22.5
2022-12-20T05:49:32.440Z,20.4
2022-12-20T05:50:48.727Z,23
2022-12-20T05:52:04.035Z,21.5
2022-12-20T05:53:20.336Z,20.8
2022-12-20T05:54:36.624Z,22.8
2022-12-20T05:55:52.926Z,21.5
2022-12-20T05:57:09.228Z,19.4
2022-12-20T05:58:25.508Z,20.3
2022-12-20T05:59:41.809Z,20.9
2022-12-20T06:00:58.108Z,20.8
2022-12-20T06:02:14.391Z,21.4
2022-12-20T06:03:30.692Z,21.7
2022-12-20T06:04:46.998Z,21.6
2022-12-20T06:06:03.281Z,20.6
2022-12-20T06:07:19.579Z,20.6
2022-12-20T06:08:34.891Z,21.4
2022-12-20T06:09:51.184Z,19.4
2022-12-20T06:11:07.476Z,21.5
2022-12-20T06:12:23.765Z,20.5
2022-12-20T06:13:40.057Z,20.4
2022-12-20T06:14:56.000Z,20.1
2022-12-20T06:16:12.656Z,20
2022-12-20T06:17:28.955Z,22.4
2022-12-20T06:18:45.238Z,20.7
2022-12-20T06:20:01.541Z,21.9
2022-12-20T06:21:17.837Z,21
2022-12-20T06:22:34.137Z,23.7
2022-12-20T06:23:50.416Z,21.4
2022-12-20T06:25:05.734Z,21.9
2022-12-20T06:26:22.038Z,20.3
2022-12-20T06:27:38.318Z,21.6
2022-12-20T06:28:54.607Z,20.6
2022-12-20T06:30:10.918Z,22.9
2022-12-20T06:31:27.198Z,21
2022-12-20T06:32:43.504Z,22
2022-12-20T06:33:58.812Z,19.4
2022-12-20T06:35:15.111Z,20.5
2022-12-20T06:36:31.410Z,20.1
2022-12-20T06:37:47.694Z,19.9
2022-12-20T06:39:03.934Z,19.7
2022-12-20T06:40:20.234Z,20.6
2022-12-20T06:41:36.492Z,20.8
2022-12-20T06:42:52.720Z,19.9
2022-12-20T06:44:08.973Z,20.2
2022-12-20T06:45:25.211Z,20.6
2022-12-20T06:47:57.693Z,20.5
2022-12-20T06:49:13.947Z,19.8
2022-12-20T06:50:29.208Z,19.2
2022-12-20T06:51:45.447Z,19.6
2022-12-20T06:53:01.676Z,22.5
2022-12-20T06:54:17.921Z,22.5
2022-12-20T06:55:34.162Z,21.4
2022-12-20T06:56:50.393Z,21.9
2022-12-20T06:58:06.648Z,21.6
2022-12-20T06:59:22.888Z,21.1
2022-12-20T07:00:39.124Z,22
2022-12-20T07:01:55.371Z,21.6
2022-12-20T07:03:11.607Z,21.9
2022-12-20T07:04:27.837Z,20
2022-12-20T07:05:44.088Z,20.3
2022-12-20T07:07:00.451Z,19.8
2022-12-20T07:08:16.687Z,21.5
2022-12-20T07:09:32.934Z,20.2
2022-12-20T07:10:49.173Z,20.4
2022-12-20T07:12:05.413Z,19.8
2022-12-20T07:13:21.656Z,20.6
2022-12-20T07:14:37.891Z,20.4
2022-12-20T07:15:54.126Z,20.6
2022-12-20T07:17:10.383Z,20.7
2022-12-20T07:18:26.609Z,20.8
2022-12-20T07:19:42.846Z,22.5
2022-12-20T07:20:59.096Z,21.4
2022-12-20T07:22:15.331Z,21.7
2022-12-20T07:23:30.592Z,21.1
2022-12-20T07:24:46.829Z,21.8
2022-12-20T07:26:03.079Z,21.7
2022-12-20T07:27:19.321Z,22.5
2022-12-20T07:28:35.564Z,21.6
2022-12-20T07:31:08.045Z,21.9
2022-12-20T07:32:24.291Z,22.3
2022-12-20T07:33:40.525Z,21.8
2022-12-20T07:34:56.755Z,21.3
2022-12-20T07:36:13.002Z,22.4
2022-12-20T07:37:29.245Z,22.2
2022-12-20T07:38:45.485Z,20.7
2022-12-20T07:40:00.734Z,21.3
2022-12-20T07:41:16.973Z,23.1
2022-12-20T07:42:33.219Z,20.4
2022-12-20T07:43:49.466Z,22.1
2022-12-20T07:45:05.710Z,21
2022-12-20T07:46:21.940Z,21.3
2022-12-20T07:47:38.182Z,22.6
2022-12-20T07:48:54.417Z,20.3
2022-12-20T07:50:10.656Z,21.7
2022-12-20T07:51:26.909Z,22.2
2022-12-20T07:52:43.150Z,20.2
2022-12-20T07:53:59.384Z,20.3
2022-12-20T07:55:15.626Z,19.5
2022-12-20T07:56:31.860Z,19.4
2022-12-20T07:57:47.116Z,20.9
2022-12-20T07:59:03.362Z,18.5
2022-12-20T08:00:19.611Z,18.6
2022-12-20T08:01:35.853Z,18.7
2022-12-20T08:02:52.092Z,18.6
2022-12-20T08:04:08.332Z,19
2022-12-20T08:05:24.566Z,19.1
2022-12-20T08:06:40.819Z,19.2
2022-12-20T08:07:57.047Z,19.2
2022-12-20T08:09:13.302Z,18.6
2022-12-20T08:11:45.766Z,18.2
2022-12-20T08:13:02.011Z,18.9
2022-12-20T08:14:17.268Z,17.9
2022-12-20T08:16:49.752Z,17.1
2022-12-20T08:18:05.998Z,18.7
2022-12-20T08:19:22.230Z,17.8
2022-12-20T08:20:38.477Z,17.8
2022-12-20T08:21:54.719Z,17.3
2022-12-20T08:23:10.942Z,15.9
2022-12-20T08:24:27.198Z,16.1
2022-12-20T08:25:43.435Z,16.2
2022-12-20T08:26:59.665Z,15.9
2022-12-20T08:28:15.915Z,17.2
2022-12-20T08:29:32.148Z,16.7
2022-12-20T08:30:47.409Z,16.6
2022-12-20T08:32:03.654Z,15.9
2022-12-20T08:33:19.903Z,17.2
2022-12-20T08:34:36.131Z,16.4
2022-12-20T08:35:52.380Z,17.5
2022-12-20T08:37:08.608Z,18.1
2022-12-20T08:38:24.859Z,17.2
2022-12-20T08:39:41.100Z,16.4
2022-12-20T08:40:57.330Z,18.1
2022-12-20T08:42:13.569Z,17.3
2022-12-20T08:43:29.827Z,18
2022-12-20T08:44:46.059Z,17.9
2022-12-20T08:46:02.293Z,17.6
2022-12-20T08:47:17.567Z,18.8
2022-12-20T08:49:50.047Z,15.8
2022-12-20T08:51:06.280Z,18.1
2022-12-20T08:52:22.530Z,16.8
2022-12-20T08:53:38.771Z,16.9
2022-12-20T08:54:54.995Z,17.5
2022-12-20T08:56:11.247Z,17.7
2022-12-20T08:57:27.490Z,17.5
2022-12-20T08:58:43.723Z,17.4
2022-12-20T08:59:59.973Z,16.6
2022-12-20T09:01:16.199Z,17.8
2022-12-20T09:02:32.447Z,17.3
2022-12-20T09:03:47.695Z,16.8
2022-12-20T09:05:03.950Z,17.5
2022-12-20T09:06:20.177Z,18.2
2022-12-20T09:07:36.412Z,17.1
2022-12-20T09:08:52.670Z,17.5
2022-12-20T09:10:08.895Z,17.6
2022-12-20T09:11:25.147Z,18.4
2022-12-20T09:12:41.378Z,16.8
2022-12-20T09:13:57.619Z,18
2022-12-20T09:15:13.861Z,18
2022-12-20T09:16:30.107Z,16.7
2022-12-20T09:17:46.346Z,17.6
2022-12-20T09:19:02.593Z,16.9
2022-12-20T09:20:17.849Z,17.4
2022-12-20T09:21:34.091Z,17.8
2022-12-20T09:22:50.328Z,17.1
2022-12-20T09:24:06.557Z,16.5
2022-12-20T09:25:22.810Z,17.5
2022-12-20T09:26:39.037Z,18.1
2022-12-20T09:27:55.289Z,17.6
2022-12-20T09:29:11.522Z,17.2
2022-12-20T09:30:27.768Z,16.9
2022-12-20T09:31:44.014Z,17.1
2022-12-20T09:33:00.000Z,17
2022-12-20T09:34:16.492Z,17.7
2022-12-20T09:35:32.738Z,16.1
2022-12-20T09:36:47.982Z,16
2022-12-20T09:38:04.227Z,17.8
2022-12-20T09:39:20.464Z,15.6
2022-12-20T09:40:36.722Z,16.8
2022-12-20T09:41:52.960Z,18.1
2022-12-20T09:43:09.200Z,16.8
2022-12-20T09:44:25.424Z,16.7
2022-12-20T09:45:41.662Z,15.6
2022-12-20T09:48:14.145Z,17
2022-12-20T09:49:30.396Z,16.4
2022-12-20T09:50:46.626Z,15.6
2022-12-20T09:52:02.884Z,17.6
2022-12-20T09:53:18.119Z,16.8
2022-12-20T09:54:34.370Z,16.8
2022-12-20T09:55:50.609Z,16.5
2022-12-20T09:57:06.860Z,17.9
2022-12-20T09:58:23.085Z,18.2
2022-12-20T09:59:39.334Z,19.6
2022-12-20T10:00:55.578Z,15.1
2022-12-20T10:02:11.823Z,16.4
2022-12-20T10:03:28.060Z,16.8
2022-12-20T10:04:44.295Z,16.3
2022-12-20T10:06:00.538Z,16.7
2022-12-20T10:07:16.784Z,16.2
2022-12-20T10:08:33.006Z,16.5
2022-12-20T10:09:48.277Z,15.5
2022-12-20T10:11:04.518Z,17.1
2022-12-20T10:12:20.748Z,17.1
2022-12-20T10:13:37.003Z,16
2022-12-20T10:14:53.233Z,15.2
2022-12-20T10:16:09.473Z,15.6
2022-12-20T10:17:25.719Z,15.9
2022-12-20T10:18:41.950Z,15.9
2022-12-20T10:21:14.440Z,16.4
2022-12-20T10:22:30.674Z,15.8
2022-12-20T10:23:46.917Z,17.3
2022-12-20T10:25:03.166Z,15.6
2022-12-20T10:26:18.418Z,16.2
2022-12-20T10:27:34.658Z,15.7
2022-12-20T10:28:50.903Z,15
2022-12-20T10:30:07.130Z,14.6
2022-12-20T10:31:23.378Z,15.2
2022-12-20T10:32:39.000Z,14.6
2022-12-20T10:33:55.858Z,15.1
2022-12-20T10:35:12.102Z,14.3
2022-12-20T10:36:28.343Z,14.6
2022-12-20T10:37:44.577Z,14.9
2022-12-20T10:39:00.829Z,14.8
2022-12-20T10:40:17.051Z,15.1
2022-12-20T10:41:33.297Z,14.3
2022-12-20T10:42:48.561Z,14.2
2022-12-20T10:44:04.790Z,15.8
2022-12-20T10:45:21.040Z,15
2022-12-20T10:46:37.280Z,14.9
2022-12-20T10:47:53.524Z,15.4
2022-12-20T10:49:08.781Z,14.2
2022-12-20T10:50:25.012Z,15.9
2022-12-20T10:51:41.250Z,15.1
2022-12-20T10:52:57.510Z,14.6
2022-12-20T10:54:13.749Z,14.8
2022-12-20T10:55:29.991Z,14.6
2022-12-20T10:56:46.223Z,14.5
2022-12-20T10:58:02.472Z,14.8
2022-12-20T10:59:18.710Z,12.5
2022-12-20T11:00:34.951Z,14.1
2022-12-20T11:01:51.175Z,13.7
2022-12-20T11:03:07.423Z,13.9
2022-12-20T11:04:23.655Z,13.4
2022-12-20T11:06:55.152Z,14.1
2022-12-20T11:08:11.403Z,14.6
2022-12-20T11:09:27.639Z,15
2022-12-20T11:10:43.874Z,15.6
2022-12-20T11:12:00.124Z,14.9
2022-12-20T11:14:32.612Z,15.2
2022-12-20T11:15:48.852Z,16.7
2022-12-20T11:17:05.091Z,18.7
2022-12-20T11:18:21.317Z,21.3
2022-12-20T11:19:37.565Z,15.9
2022-12-20T11:20:53.814Z,17.1
2022-12-20T11:22:09.059Z,19
2022-12-20T11:23:25.315Z,14
2022-12-20T11:24:41.552Z,13.1
2022-12-20T11:25:57.797Z,15.7
2022-12-20T11:27:14.018Z,15.8
2022-12-20T11:28:30.259Z,14.5
2022-12-20T11:29:46.498Z,15.2
2022-12-20T11:31:02.749Z,14.6
2022-12-20T11:32:18.990Z,13.2
2022-12-20T11:33:35.229Z,13.4
2022-12-20T11:34:51.456Z,13.6
2022-12-20T11:36:07.704Z,13.3
2022-12-20T11:37:23.941Z,13.4
2022-12-20T11:38:39.209Z,13.6
2022-12-20T11:39:55.447Z,14.1
2022-12-20T11:41:11.679Z,13.6
2022-12-20T11:42:27.914Z,13.4
2022-12-20T11:43:44.171Z,13
2022-12-20T11:45:00.413Z,13.1
2022-12-20T11:46:16.641Z,14.3
2022-12-20T11:47:32.882Z,14.4
2022-12-20T11:48:49.126Z,13.3
2022-12-20T11:50:05.359Z,12.9
2022-12-20T11:51:21.611Z,12.5
2022-12-20T11:52:37.855Z,13
2022-12-20T11:53:54.095Z,13
2022-12-20T11:55:09.334Z,13.1
2022-12-20T11:56:25.586Z,13.5
2022-12-20T11:57:41.829Z,13.4
2022-12-20T11:58:58.065Z,14.2
2022-12-20T12:00:14.309Z,13.3
2022-12-20T12:01:30.535Z,13.5
2022-12-20T12:02:46.789Z,14.2
2022-12-20T12:04:03.021Z,13.3
2022-12-20T12:05:19.272Z,13.6
2022-12-20T12:07:51.753Z,13.5
2022-12-20T12:09:07.987Z,13.2
2022-12-20T12:10:24.234Z,12.7
2022-12-20T12:11:39.481Z,14.8
2022-12-20T12:12:55.711Z,13.9
2022-12-20T12:18:00.684Z,13.4
2022-12-20T12:19:16.923Z,14.5
2022-12-20T12:20:32.182Z,15
2022-12-20T12:21:47.433Z,13.1
2022-12-20T12:23:03.685Z,12.9
2022-12-20T12:24:19.918Z,13.3
2022-12-20T12:25:36.168Z,14
2022-12-20T12:26:52.397Z,14.7
2022-12-20T12:28:08.642Z,13.5
2022-12-20T12:29:24.884Z,12.1
2022-12-20T12:30:41.111Z,13.7
2022-12-20T12:31:57.361Z,13.8
2022-12-20T12:33:13.595Z,13.7
2022-12-20T12:34:28.875Z,13.2
2022-12-20T12:35:44.126Z,13.7
2022-12-20T12:37:00.371Z,12.8
2022-12-20T12:38:16.601Z,13.4
2022-12-20T12:39:32.838Z,12.8
2022-12-20T12:42:05.318Z,13.6
2022-12-20T12:43:21.564Z,14
2022-12-20T12:44:37.799Z,14.7
2022-12-20T12:45:54.053Z,13.5
2022-12-20T12:47:10.290Z,14.1
2022-12-20T12:48:26.521Z,14.1
2022-12-20T12:49:42.755Z,13.6
2022-12-20T12:50:59.006Z,14.1
2022-12-20T12:52:14.255Z,13.8
2022-12-20T12:53:30.493Z,12.8
2022-12-20T12:54:46.752Z,13.5
2022-12-20T12:56:02.982Z,12.8
2022-12-20T12:57:19.213Z,13
2022-12-20T12:58:35.468Z,13
2022-12-20T12:59:51.698Z,14.4
2022-12-20T13:01:07.935Z,13.6
2022-12-20T13:02:24.174Z,12.9
2022-12-20T13:03:40.424Z,13.3
2022-12-20T13:04:56.657Z,13.7
2022-12-20T13:06:12.894Z,13.2
2022-12-20T13:07:29.153Z,13.7
2022-12-20T13:08:44.409Z,13.7
2022-12-20T13:10:00.647Z,14.1
2022-12-20T13:11:16.883Z,13.7
2022-12-20T13:12:33.126Z,13.3
2022-12-20T13:13:49.358Z,13.6
2022-12-20T13:15:05.592Z,13.5
2022-12-20T13:16:21.835Z,12.5
2022-12-20T13:17:38.092Z,13.8
2022-12-20T13:18:54.333Z,12.6
2022-12-20T13:20:10.562Z,12.6
2022-12-20T13:21:26.796Z,12.8
2022-12-20T13:22:43.041Z,13.4
2022-12-20T13:23:59.287Z,13.3
2022-12-20T13:25:14.537Z,13.4
2022-12-20T13:26:30.775Z,12.2
2022-12-20T13:27:47.012Z,13.7
2022-12-20T13:29:03.267Z,12.7
2022-12-20T13:30:19.498Z,13.1
2022-12-20T13:31:35.741Z,13.7
2022-12-20T13:32:51.976Z,12.5
2022-12-20T13:34:08.219Z,13
2022-12-20T13:35:24.453Z,13.4
2022-12-20T13:36:40.697Z,12.4
2022-12-20T13:37:56.951Z,12.4
2022-12-20T13:39:13.182Z,13.4
2022-12-20T13:40:29.431Z,13.6
2022-12-20T13:41:44.685Z,12.3
2022-12-20T13:43:00.920Z,12.4
2022-12-20T13:44:17.154Z,11.6
2022-12-20T13:45:33.391Z,12.8
2022-12-20T13:46:49.634Z,12.8
2022-12-20T13:48:05.888Z,12.3
2022-12-20T13:49:22.119Z,13.4
2022-12-20T13:50:38.359Z,13.3
2022-12-20T13:51:54.600Z,12.7
2022-12-20T13:53:10.831Z,12.8
2022-12-20T13:54:27.073Z,12.3
2022-12-20T13:55:43.320Z,12.3
2022-12-20T13:56:59.558Z,12.4
2022-12-20T13:58:14.813Z,13
2022-12-20T13:59:31.058Z,12.6
2022-12-20T14:00:47.305Z,13.2
2022-12-20T14:02:03.546Z,12.4
2022-12-20T14:03:19.776Z,13
2022-12-20T14:04:36.012Z,12
2022-12-20T14:05:52.257Z,12.5
2022-12-20T14:07:08.499Z,13
2022-12-20T14:09:40.973Z,11.9
2022-12-20T14:10:57.227Z,11.7
2022-12-20T14:12:13.465Z,12.8
2022-12-20T14:13:29.709Z,13.6
2022-12-20T14:14:44.954Z,12.6
2022-12-20T14:16:01.198Z,12.5
2022-12-20T14:17:17.445Z,12.2
2022-12-20T14:18:33.679Z,13.1
2022-12-20T14:19:49.918Z,12.9
2022-12-20T14:21:06.165Z,12.9
2022-12-20T14:22:22.411Z,13.2
2022-12-20T14:23:38.000Z,13.4
2022-12-20T14:24:54.881Z,14.1
2022-12-20T14:26:11.115Z,13.4
2022-12-20T14:27:27.354Z,12.6
2022-12-20T14:28:43.603Z,16.5
2022-12-20T14:29:59.833Z,14.3
2022-12-20T14:31:15.103Z,13.7
2022-12-20T14:32:31.337Z,14.6
2022-12-20T14:33:47.571Z,13.7
2022-12-20T14:35:03.826Z,13.7
2022-12-20T14:36:20.071Z,12.8
2022-12-20T14:37:36.307Z,13.6
2022-12-20T14:38:52.540Z,14
2022-12-20T14:40:08.788Z,13.3
2022-12-20T14:41:25.012Z,13.5
2022-12-20T14:42:41.262Z,14.7
2022-12-20T14:43:57.492Z,12.6
2022-12-20T14:45:13.744Z,14
2022-12-20T14:46:29.991Z,14.5
2022-12-20T14:47:45.251Z,15.3
2022-12-20T14:49:01.483Z,15.3
2022-12-20T14:50:17.721Z,14.3
2022-12-20T14:51:33.970Z,14.4
2022-12-20T14:52:50.210Z,14.4
2022-12-20T14:54:06.448Z,13.3
2022-12-20T14:55:22.687Z,12.8
2022-12-20T14:56:38.916Z,13.8
2022-12-20T14:57:55.164Z,13.5
2022-12-20T14:59:11.408Z,13
2022-12-20T15:00:27.639Z,13
2022-12-20T15:01:43.894Z,12
2022-12-20T15:03:00.132Z,12.9
2022-12-20T15:04:15.392Z,12.4
2022-12-20T15:05:31.622Z,13.7
2022-12-20T15:06:47.867Z,12.1
2022-12-20T15:08:04.100Z,13
2022-12-20T15:09:20.360Z,12.9
2022-12-20T15:10:36.582Z,12.2
2022-12-20T15:11:52.839Z,11.8
2022-12-20T15:13:09.063Z,12.7
2022-12-20T15:14:25.316Z,13.1
2022-12-20T15:15:41.540Z,12.5
2022-12-20T15:16:57.786Z,12.6
2022-12-20T15:18:14.029Z,13.8
2022-12-20T15:19:30.261Z,13
2022-12-20T15:20:45.532Z,11.9
2022-12-20T15:22:01.767Z,13.1
2022-12-20T15:23:18.006Z,13
2022-12-20T15:24:34.248Z,14
2022-12-20T15:25:50.493Z,13.2
2022-12-20T15:27:06.718Z,12.7
2022-12-20T15:28:22.972Z,13.1
2022-12-20T15:29:39.207Z,14.1
2022-12-20T15:30:55.456Z,15
2022-12-20T15:32:11.680Z,13.3
2022-12-20T15:33:27.975Z,13.2
2022-12-20T15:34:44.283Z,13.1
2022-12-20T15:36:00.562Z,13.3
2022-12-20T15:37:15.874Z,17.9
2022-12-20T15:38:32.179Z,20.4
2022-12-20T15:39:48.469Z,22.8
2022-12-20T15:41:04.770Z,19.3
2022-12-20T15:42:21.067Z,16
2022-12-20T15:43:37.358Z,17
2022-12-20T15:44:53.643Z,16.5
2022-12-20T15:46:09.941Z,17.6
2022-12-20T15:47:26.232Z,16.5
2022-12-20T15:48:42.528Z,16
2022-12-20T15:49:58.823Z,16.2
2022-12-20T15:51:15.113Z,17.4
2022-12-20T15:52:31.405Z,14.4
2022-12-20T15:53:46.720Z,16.1
2022-12-20T15:56:19.303Z,13.9
2022-12-20T15:57:35.598Z,13.7
2022-12-20T15:58:51.901Z,14
2022-12-20T16:00:08.185Z,13.1
2022-12-20T16:01:24.483Z,13.7
2022-12-20T16:02:40.788Z,14.5
2022-12-20T16:03:57.072Z,13.7
2022-12-20T16:05:13.378Z,13.2
2022-12-20T16:06:29.668Z,13.7
2022-12-20T16:07:45.965Z,13
2022-12-20T16:09:02.250Z,13.3
2022-12-20T16:10:17.568Z,13.4
2022-12-20T16:11:33.865Z,11.8
2022-12-20T16:12:50.150Z,13.2
2022-12-20T16:14:06.440Z,14.4
2022-12-20T16:15:22.750Z,13.4
2022-12-20T16:16:39.037Z,14.1
2022-12-20T16:17:55.330Z,13.6
2022-12-20T16:19:11.635Z,13.3
2022-12-20T16:20:27.916Z,13.4
2022-12-20T16:21:44.218Z,13.3
2022-12-20T16:23:00.509Z,12.7
2022-12-20T16:24:16.807Z,13.1
2022-12-20T16:26:49.401Z,13.9
2022-12-20T16:28:04.706Z,13
2022-12-20T16:29:21.001Z,13.3
2022-12-20T16:30:37.301Z,13.6
2022-12-20T16:31:53.590Z,12.8
2022-12-20T16:33:09.884Z,13
2022-12-20T16:34:26.180Z,14.5
2022-12-20T16:35:42.463Z,14
2022-12-20T16:36:58.768Z,13.5
2022-12-20T16:38:15.069Z,13.3
2022-12-20T16:39:31.357Z,13.1
2022-12-20T16:40:47.638Z,13.9
2022-12-20T16:42:03.937Z,13.4
2022-12-20T16:44:36.531Z,14.6
2022-12-20T16:45:51.841Z,13
2022-12-20T16:47:08.134Z,14.2
2022-12-20T16:48:24.424Z,13.5
2022-12-20T16:50:57.028Z,14.8
2022-12-20T16:52:12.343Z,14.9
2022-12-20T16:53:27.640Z,14
2022-12-20T16:54:43.935Z,13.7
2022-12-20T16:56:00.241Z,14.1
2022-12-20T16:57:16.531Z,13.4
2022-12-20T16:58:32.809Z,13.3
2022-12-20T16:59:49.125Z,13.5
2022-12-20T17:01:05.420Z,13.8
2022-12-20T17:02:21.715Z,13.4
2022-12-20T17:03:38.012Z,13.6
2022-12-20T17:04:54.296Z,12.6
2022-12-20T17:06:09.619Z,14.2
2022-12-20T17:07:24.932Z,14.3
2022-12-20T17:09:57.505Z,13.7
2022-12-20T17:11:13.803Z,14.4
2022-12-20T17:12:30.107Z,16.2
2022-12-20T17:13:46.392Z,16.8
2022-12-20T17:15:02.698Z,15.4
2022-12-20T17:16:18.990Z,15.5
2022-12-20T17:17:35.289Z,14.2
2022-12-20T17:18:51.574Z,13.8
2022-12-20T17:20:07.879Z,14.1
2022-12-20T17:21:24.159Z,14.3
2022-12-20T17:23:55.766Z,14.8
2022-12-20T17:25:12.063Z,15.1
2022-12-20T17:26:28.361Z,15
2022-12-20T17:27:44.663Z,14.5
2022-12-20T17:29:00.953Z,14.3
2022-12-20T17:30:17.248Z,12.9
2022-12-20T17:31:33.535Z,12.7
2022-12-20T17:32:49.823Z,13.5
2022-12-20T17:34:06.124Z,13.7
2022-12-20T17:35:22.415Z,14.7
2022-12-20T17:36:38.717Z,13.6
2022-12-20T17:37:55.015Z,14.7
2022-12-20T17:39:11.303Z,13.8